Terminal Aerodrome Forecast
Issued by NWS

Home | Current Version | Previous Version | Text Only | Print | Product List | Glossary On
Versions: 1 2 3 4 5 6 7 8 9 10 11 12 13 14 15 16 17 18 19 20 21 22 23 24 25 26 27 28 29 30 31 32 33 34 35 36 37 38 39 40 41 42 43 44 45 46
000
FTUS43 KDTX 012300
TAFPTK
TAF
KPTK 012320Z 0200/0224 22007KT P6SM SCT035 BKN070
     FM020700 23005KT 3SM BR BKN012
     FM021300 25007KT P6SM SCT020 BKN040
     FM021800 26012KT P6SM SCT045=

USA.gov is the U.S. government's official web portal to all federal, state and local government web resources and services.